createdAt,value
2018-11-07T00:02:23.677Z,8.80
2018-11-07T00:04:57.375Z,8.80
2018-11-07T00:07:31.025Z,8.80
2018-11-07T00:10:05.851Z,8.70
2018-11-07T00:12:39.492Z,8.70
2018-11-07T00:15:13.948Z,8.80
2018-11-07T00:17:47.583Z,8.80
2018-11-07T00:20:21.401Z,8.80
2018-11-07T00:22:54.950Z,8.70
2018-11-07T00:25:29.259Z,8.70
2018-11-07T00:28:02.901Z,8.70
2018-11-07T00:30:36.594Z,8.80
2018-11-07T00:33:10.277Z,8.80
2018-11-07T00:35:44.035Z,8.80
2018-11-07T00:38:18.481Z,8.80
2018-11-07T00:40:52.126Z,8.80
2018-11-07T00:43:25.838Z,8.80
2018-11-07T00:45:59.426Z,8.80
2018-11-07T00:48:33.010Z,8.80
2018-11-07T00:51:07.557Z,8.80
2018-11-07T00:53:41.354Z,8.70
2018-11-07T00:56:14.967Z,8.80
2018-11-07T00:58:48.554Z,8.80
2018-11-07T01:01:22.089Z,8.80
2018-11-07T01:03:55.754Z,8.80
2018-11-07T01:06:30.145Z,8.80
2018-11-07T01:09:03.913Z,8.80
2018-11-07T01:11:37.661Z,8.80
2018-11-07T01:14:11.249Z,8.80
2018-11-07T01:16:45.003Z,8.80
2018-11-07T01:19:18.462Z,8.80
2018-11-07T01:21:52.066Z,8.80
2018-11-07T01:24:25.718Z,8.80
2018-11-07T01:26:59.311Z,8.80
2018-11-07T01:29:32.878Z,8.80
2018-11-07T01:32:06.581Z,8.80
2018-11-07T01:34:40.171Z,8.80
2018-11-07T01:37:14.496Z,8.70
2018-11-07T01:39:48.216Z,8.70
2018-11-07T01:42:21.917Z,8.60
2018-11-07T01:44:55.630Z,8.60
2018-11-07T01:47:29.290Z,8.60
2018-11-07T01:50:02.918Z,8.60
2018-11-07T01:52:37.410Z,8.50
2018-11-07T01:55:11.254Z,8.50
2018-11-07T01:57:44.816Z,8.50
2018-11-07T02:00:18.341Z,8.50
2018-11-07T02:02:52.065Z,8.50
2018-11-07T02:05:25.784Z,8.50
2018-11-07T02:07:59.358Z,8.40
2018-11-07T02:10:32.952Z,8.40
2018-11-07T02:13:06.569Z,8.40
2018-11-07T02:15:40.133Z,8.40
2018-11-07T02:18:13.740Z,8.40
2018-11-07T02:20:47.355Z,8.40
2018-11-07T02:23:21.189Z,8.30
2018-11-07T02:25:54.816Z,8.30
2018-11-07T02:28:28.602Z,8.30
2018-11-07T02:31:02.299Z,8.30
2018-11-07T02:33:35.995Z,8.30
2018-11-07T02:36:09.598Z,8.20
2018-11-07T02:38:43.303Z,8.20
2018-11-07T02:41:16.898Z,8.30
2018-11-07T02:43:51.434Z,8.30
2018-11-07T02:46:24.980Z,8.30
2018-11-07T02:48:58.608Z,8.30
2018-11-07T02:51:32.927Z,8.40
2018-11-07T02:54:06.516Z,8.30
2018-11-07T02:56:40.254Z,8.30
2018-11-07T02:59:13.809Z,8.20
2018-11-07T03:01:47.590Z,8.20
2018-11-07T03:04:22.080Z,8.10
2018-11-07T03:06:55.690Z,8.10
2018-11-07T03:09:29.243Z,8.10
2018-11-07T03:12:02.757Z,8.10
2018-11-07T03:14:36.390Z,8.10
2018-11-07T03:17:10.072Z,8.10
2018-11-07T03:19:43.644Z,8.10
2018-11-07T03:22:17.232Z,8.10
2018-11-07T03:24:50.819Z,8.00
2018-11-07T03:27:24.401Z,8.00
2018-11-07T03:29:58.085Z,8.00
2018-11-07T03:32:31.668Z,8.00
2018-11-07T03:35:05.265Z,8.00
2018-11-07T03:37:38.871Z,7.90
2018-11-07T03:40:12.513Z,7.90
2018-11-07T03:42:46.297Z,7.90
2018-11-07T03:45:20.611Z,7.80
2018-11-07T03:47:54.996Z,7.70
2018-11-07T03:50:28.598Z,7.70
2018-11-07T03:53:02.379Z,7.70
2018-11-07T03:55:35.972Z,7.70
2018-11-07T03:58:09.483Z,7.70
2018-11-07T04:00:43.224Z,7.60
2018-11-07T04:03:16.911Z,7.60
2018-11-07T04:05:51.250Z,7.70
2018-11-07T04:08:24.931Z,7.70
2018-11-07T04:10:59.288Z,7.70
2018-11-07T04:13:33.684Z,7.60
2018-11-07T04:16:08.008Z,7.60
2018-11-07T04:18:41.730Z,7.60
2018-11-07T04:21:16.046Z,7.60
2018-11-07T04:23:49.609Z,7.60
2018-11-07T04:26:23.233Z,7.60
2018-11-07T04:28:56.835Z,7.60
2018-11-07T04:31:30.590Z,7.50
2018-11-07T04:34:04.147Z,7.50
2018-11-07T04:36:37.737Z,7.50
2018-11-07T04:39:12.126Z,7.40
2018-11-07T04:41:45.631Z,7.40
2018-11-07T04:44:19.981Z,7.40
2018-11-07T04:46:53.662Z,7.40
2018-11-07T04:49:27.280Z,7.50
2018-11-07T04:52:00.770Z,7.50
2018-11-07T04:54:34.370Z,7.50
2018-11-07T04:57:08.012Z,7.50
2018-11-07T04:59:41.706Z,7.40
2018-11-07T05:02:15.385Z,7.40
2018-11-07T05:04:49.108Z,7.40
2018-11-07T05:07:22.848Z,7.40
2018-11-07T05:09:56.642Z,7.40
2018-11-07T05:12:30.359Z,7.40
2018-11-07T05:15:04.733Z,7.40
2018-11-07T05:17:38.362Z,7.40
2018-11-07T05:20:12.073Z,7.40
2018-11-07T05:22:45.838Z,7.40
2018-11-07T05:25:19.678Z,7.40
2018-11-07T05:27:53.276Z,7.40
2018-11-07T05:30:27.775Z,7.50
2018-11-07T05:33:01.400Z,7.40
2018-11-07T05:35:34.989Z,7.40
2018-11-07T05:38:08.677Z,7.50
2018-11-07T05:40:42.325Z,7.40
2018-11-07T05:43:15.978Z,7.40
2018-11-07T05:45:49.679Z,7.40
2018-11-07T05:48:23.304Z,7.40
2018-11-07T05:50:56.960Z,7.40
2018-11-07T05:53:30.541Z,7.40
2018-11-07T05:56:04.212Z,7.40
2018-11-07T05:58:37.929Z,7.40
2018-11-07T06:01:11.613Z,7.40
2018-11-07T06:03:45.180Z,7.40
2018-11-07T06:06:18.974Z,7.40
2018-11-07T06:08:52.751Z,7.40
2018-11-07T06:11:27.071Z,7.50
2018-11-07T06:14:00.589Z,7.60
2018-11-07T06:16:34.148Z,7.60
2018-11-07T06:19:07.968Z,7.60
2018-11-07T06:21:41.772Z,7.70
2018-11-07T06:24:15.530Z,7.70
2018-11-07T06:26:49.038Z,7.60
2018-11-07T06:29:22.707Z,7.60
2018-11-07T06:31:56.376Z,8.30
2018-11-07T06:34:29.993Z,8.40
2018-11-07T06:37:03.650Z,8.80
2018-11-07T06:39:37.196Z,8.80
2018-11-07T06:42:10.863Z,8.60
2018-11-07T06:44:45.300Z,8.60
2018-11-07T06:47:18.964Z,8.50
2018-11-07T06:49:52.758Z,8.60
2018-11-07T06:52:26.349Z,8.50
2018-11-07T06:55:01.728Z,8.30
2018-11-07T06:57:35.433Z,8.30
2018-11-07T07:00:09.005Z,8.20
2018-11-07T07:02:42.791Z,8.10
2018-11-07T07:05:16.372Z,7.90
2018-11-07T07:07:49.971Z,8.10
2018-11-07T07:10:23.556Z,8.10
2018-11-07T07:12:57.172Z,8.10
2018-11-07T07:15:30.990Z,8.00
2018-11-07T07:18:04.843Z,7.90
2018-11-07T07:20:38.577Z,7.90
2018-11-07T07:23:12.311Z,7.80
2018-11-07T07:25:46.207Z,7.80
2018-11-07T07:28:19.959Z,7.80
2018-11-07T07:30:53.627Z,7.80
2018-11-07T07:33:27.203Z,8.00
2018-11-07T07:36:00.985Z,8.10
2018-11-07T07:38:35.718Z,8.30
2018-11-07T07:41:09.435Z,8.30
2018-11-07T07:43:43.168Z,8.50
2018-11-07T07:46:17.579Z,9.40
2018-11-07T07:48:52.067Z,10.00
2018-11-07T07:51:25.813Z,10.00
2018-11-07T07:53:59.582Z,10.90
2018-11-07T07:56:33.122Z,11.60
2018-11-07T07:59:06.705Z,12.10
2018-11-07T08:01:40.311Z,12.80
2018-11-07T08:04:13.929Z,13.30
2018-11-07T08:06:47.975Z,13.60
2018-11-07T08:09:21.766Z,13.90
2018-11-07T08:11:55.554Z,13.80
2018-11-07T08:14:29.121Z,13.60
2018-11-07T08:17:02.622Z,13.60
2018-11-07T08:19:36.243Z,13.50
2018-11-07T08:22:10.661Z,14.70
2018-11-07T08:24:44.289Z,14.70
2018-11-07T08:27:17.978Z,15.10
2018-11-07T08:29:51.817Z,15.90
2018-11-07T08:32:25.487Z,16.40
2018-11-07T08:34:59.088Z,16.60
2018-11-07T08:37:33.466Z,17.10
2018-11-07T08:40:07.931Z,17.30
2018-11-07T08:42:42.320Z,17.30
2018-11-07T08:45:16.151Z,17.30
2018-11-07T08:47:49.992Z,17.50
2018-11-07T08:50:23.811Z,17.40
2018-11-07T08:52:57.600Z,17.50
2018-11-07T08:55:31.288Z,17.50
2018-11-07T08:58:05.685Z,17.90
2018-11-07T09:00:39.400Z,17.90
2018-11-07T09:03:13.196Z,18.00
2018-11-07T09:05:47.020Z,18.00
2018-11-07T09:08:20.667Z,17.90
2018-11-07T09:10:54.396Z,17.70
2018-11-07T09:13:28.245Z,17.60
2018-11-07T09:16:01.801Z,17.70
2018-11-07T09:18:36.409Z,18.00
2018-11-07T09:21:10.031Z,18.00
2018-11-07T09:23:43.599Z,17.30
2018-11-07T09:26:18.033Z,16.80
2018-11-07T09:28:51.646Z,16.80
2018-11-07T09:31:25.193Z,16.90
2018-11-07T09:33:58.901Z,17.60
2018-11-07T09:36:32.491Z,18.30
2018-11-07T09:39:06.137Z,19.10
2018-11-07T09:41:39.762Z,19.30
2018-11-07T09:44:13.561Z,19.20
2018-11-07T09:46:48.146Z,19.20
2018-11-07T09:49:22.716Z,19.30
2018-11-07T09:51:57.221Z,19.10
2018-11-07T09:54:30.823Z,19.10
2018-11-07T09:57:04.492Z,19.00
2018-11-07T09:59:39.053Z,18.80
2018-11-07T10:02:12.763Z,18.80
2018-11-07T10:04:46.289Z,18.90
2018-11-07T10:07:19.863Z,19.10
2018-11-07T10:09:53.618Z,19.10
2018-11-07T10:12:28.178Z,19.10
2018-11-07T10:15:01.819Z,19.10
2018-11-07T10:17:35.657Z,19.30
2018-11-07T10:20:09.406Z,19.50
2018-11-07T10:22:42.988Z,19.80
2018-11-07T10:25:16.599Z,20.20
2018-11-07T10:27:50.563Z,20.30
2018-11-07T10:30:24.225Z,20.00
2018-11-07T10:32:57.594Z,20.30
2018-11-07T10:35:31.268Z,20.50
2018-11-07T10:38:05.217Z,20.60
2018-11-07T10:40:38.631Z,20.30
2018-11-07T10:43:12.254Z,20.20
2018-11-07T10:45:46.009Z,20.00
2018-11-07T10:48:19.691Z,19.80
2018-11-07T10:50:53.970Z,20.00
2018-11-07T10:53:28.557Z,20.20
2018-11-07T10:56:02.177Z,20.20
2018-11-07T10:58:35.793Z,20.20
2018-11-07T11:01:09.528Z,20.00
2018-11-07T11:03:43.061Z,20.00
2018-11-07T11:06:16.799Z,19.60
2018-11-07T11:08:50.474Z,19.60
2018-11-07T11:11:24.204Z,20.00
2018-11-07T11:13:57.844Z,19.70
2018-11-07T11:16:32.306Z,19.60
2018-11-07T11:19:06.853Z,19.50
2018-11-07T11:21:40.598Z,19.50
2018-11-07T11:24:14.312Z,19.50
2018-11-07T11:26:48.093Z,19.30
2018-11-07T11:29:21.959Z,18.90
2018-11-07T11:31:56.619Z,18.10
2018-11-07T11:34:30.496Z,18.10
2018-11-07T11:37:05.052Z,17.80
2018-11-07T11:39:38.636Z,17.80
2018-11-07T11:42:12.238Z,17.60
2018-11-07T11:44:46.012Z,17.40
2018-11-07T11:47:20.426Z,17.10
2018-11-07T11:49:54.774Z,17.10
2018-11-07T11:52:28.446Z,17.10
2018-11-07T11:55:02.008Z,16.80
2018-11-07T11:57:35.743Z,16.80
2018-11-07T12:00:10.476Z,16.70
2018-11-07T12:02:43.738Z,16.70
2018-11-07T12:05:18.097Z,16.80
2018-11-07T12:07:51.833Z,16.80
2018-11-07T12:10:26.175Z,16.80
2018-11-07T12:12:59.852Z,16.80
2018-11-07T12:15:33.475Z,16.80
2018-11-07T12:18:07.096Z,16.80
2018-11-07T12:20:40.893Z,16.80
2018-11-07T12:23:14.581Z,16.80
2018-11-07T12:25:48.132Z,16.80
2018-11-07T12:28:21.688Z,16.70
2018-11-07T12:30:57.299Z,16.80
2018-11-07T12:33:31.051Z,16.80
2018-11-07T12:36:04.697Z,16.90
2018-11-07T12:38:38.353Z,16.90
2018-11-07T12:41:12.162Z,17.00
2018-11-07T12:43:45.760Z,17.00
2018-11-07T12:46:20.118Z,17.00
2018-11-07T12:48:53.679Z,17.00
2018-11-07T12:51:28.273Z,17.10
2018-11-07T12:54:03.424Z,17.10
2018-11-07T12:56:37.047Z,17.10
2018-11-07T12:59:10.720Z,17.20
2018-11-07T13:01:44.594Z,17.20
2018-11-07T13:04:19.201Z,17.20
2018-11-07T13:06:53.551Z,17.20
2018-11-07T13:09:27.084Z,17.20
2018-11-07T13:12:00.794Z,17.20
2018-11-07T13:14:34.382Z,17.30
2018-11-07T13:17:08.050Z,17.30
2018-11-07T13:19:41.675Z,17.30
2018-11-07T13:22:15.565Z,17.30
2018-11-07T13:24:49.073Z,17.30
2018-11-07T13:27:22.684Z,17.30
2018-11-07T13:29:56.312Z,17.40
2018-11-07T13:32:30.076Z,17.40
2018-11-07T13:35:03.788Z,17.30
2018-11-07T13:37:37.783Z,17.30
2018-11-07T13:40:11.171Z,17.40
2018-11-07T13:42:44.950Z,17.40
2018-11-07T13:45:18.655Z,17.40
2018-11-07T13:48:06.231Z,17.40
2018-11-07T13:50:39.786Z,17.40
2018-11-07T13:53:13.391Z,17.40
2018-11-07T13:55:47.655Z,17.40
2018-11-07T13:58:22.031Z,17.40
2018-11-07T14:00:55.797Z,17.40
2018-11-07T14:03:29.414Z,17.40
2018-11-07T14:06:03.051Z,17.30
2018-11-07T14:08:36.867Z,17.30
2018-11-07T14:11:10.577Z,17.30
2018-11-07T14:13:44.188Z,17.20
2018-11-07T14:16:18.091Z,17.20
2018-11-07T14:18:51.803Z,17.20
2018-11-07T14:21:25.391Z,17.10
2018-11-07T14:23:58.951Z,17.10
2018-11-07T14:26:32.751Z,17.10
2018-11-07T14:29:07.120Z,17.00
2018-11-07T14:31:41.721Z,17.00
2018-11-07T14:34:15.247Z,17.00
2018-11-07T14:36:49.000Z,16.90
2018-11-07T14:39:23.301Z,16.80
2018-11-07T14:41:57.021Z,16.80
2018-11-07T14:44:30.647Z,16.80
2018-11-07T14:47:04.204Z,16.70
2018-11-07T14:49:37.796Z,16.70
2018-11-07T14:52:12.178Z,16.50
2018-11-07T14:54:45.965Z,16.50
2018-11-07T14:57:19.647Z,16.40
2018-11-07T14:59:53.295Z,16.20
2018-11-07T15:02:27.687Z,16.00
2018-11-07T15:05:01.467Z,16.00
2018-11-07T15:07:35.104Z,15.90
2018-11-07T15:10:08.931Z,15.80
2018-11-07T15:12:42.672Z,15.70
2018-11-07T15:15:16.543Z,15.60
2018-11-07T15:17:51.166Z,15.50
2018-11-07T15:20:24.786Z,15.40
2018-11-07T15:22:58.570Z,15.30
2018-11-07T15:25:33.143Z,15.20
2018-11-07T15:28:06.856Z,15.10
2018-11-07T15:30:40.581Z,15.10
2018-11-07T15:33:14.210Z,15.00
2018-11-07T15:35:48.012Z,14.90
2018-11-07T15:38:21.646Z,14.80
2018-11-07T15:40:55.374Z,14.70
2018-11-07T15:43:29.287Z,14.50
2018-11-07T15:46:03.762Z,14.40
2018-11-07T15:48:37.500Z,14.40
2018-11-07T15:51:11.869Z,14.30
2018-11-07T15:53:46.420Z,14.20
2018-11-07T15:56:20.106Z,14.20
2018-11-07T15:58:54.667Z,14.10
2018-11-07T16:01:28.332Z,14.10
2018-11-07T16:04:02.710Z,14.00
2018-11-07T16:06:37.178Z,14.00
2018-11-07T16:09:10.926Z,14.00
2018-11-07T16:11:44.474Z,13.90
2018-11-07T16:14:18.133Z,13.90
2018-11-07T16:16:52.635Z,13.80
2018-11-07T16:19:27.065Z,13.80
2018-11-07T16:22:00.775Z,13.80
2018-11-07T16:24:35.303Z,13.70
2018-11-07T16:27:09.072Z,13.70
2018-11-07T16:29:43.606Z,13.40
2018-11-07T16:32:17.210Z,13.40
2018-11-07T16:34:50.814Z,13.40
2018-11-07T16:37:24.626Z,13.40
2018-11-07T16:39:58.511Z,13.40
2018-11-07T16:42:32.262Z,13.40
2018-11-07T16:45:05.782Z,13.30
2018-11-07T16:47:39.546Z,13.30
2018-11-07T16:50:13.186Z,13.30
2018-11-07T16:52:46.924Z,13.20
2018-11-07T16:55:21.379Z,13.30
2018-11-07T16:57:54.910Z,13.30
2018-11-07T17:00:28.790Z,13.20
2018-11-07T17:03:02.587Z,13.10
2018-11-07T17:05:36.329Z,13.10
2018-11-07T17:08:10.091Z,13.00
2018-11-07T17:10:43.784Z,13.00
2018-11-07T17:13:17.384Z,12.90
2018-11-07T17:15:50.983Z,12.80
2018-11-07T17:18:24.542Z,12.80
2018-11-07T17:20:59.124Z,12.80
2018-11-07T17:23:32.853Z,12.80
2018-11-07T17:26:07.345Z,12.80
2018-11-07T17:28:41.751Z,12.80
2018-11-07T17:31:15.393Z,12.80
2018-11-07T17:33:49.496Z,12.80
2018-11-07T17:36:23.249Z,12.70
2018-11-07T17:38:57.788Z,12.70
2018-11-07T17:41:31.440Z,12.60
2018-11-07T17:44:05.063Z,12.60
2018-11-07T17:46:38.656Z,12.50
2018-11-07T17:49:12.426Z,12.40
2018-11-07T17:51:46.196Z,12.30
2018-11-07T17:54:19.768Z,12.20
2018-11-07T17:56:54.216Z,12.20
2018-11-07T17:59:27.956Z,12.20
2018-11-07T18:02:01.597Z,12.20
2018-11-07T18:04:35.298Z,12.20
2018-11-07T18:07:08.985Z,12.20
2018-11-07T18:09:42.628Z,12.20
2018-11-07T18:12:16.384Z,12.10
2018-11-07T18:14:49.946Z,12.10
2018-11-07T18:17:23.808Z,12.10
2018-11-07T18:19:57.333Z,12.10
2018-11-07T18:22:30.923Z,12.10
2018-11-07T18:25:04.603Z,12.00
2018-11-07T18:27:38.180Z,12.00
2018-11-07T18:30:12.059Z,11.90
2018-11-07T18:32:46.649Z,11.90
2018-11-07T18:35:20.570Z,11.80
2018-11-07T18:37:54.211Z,11.90
2018-11-07T18:40:27.855Z,11.90
2018-11-07T18:43:02.509Z,11.80
2018-11-07T18:45:36.072Z,11.80
2018-11-07T18:48:09.607Z,11.80
2018-11-07T18:50:44.077Z,11.80
2018-11-07T18:53:17.803Z,11.80
2018-11-07T18:55:52.408Z,11.80
2018-11-07T18:58:26.098Z,11.70
2018-11-07T19:00:59.791Z,11.60
2018-11-07T19:03:33.573Z,11.60
2018-11-07T19:06:13.699Z,11.60
2018-11-07T19:08:47.953Z,11.60
2018-11-07T19:11:21.559Z,11.50
2018-11-07T19:13:55.994Z,11.40
2018-11-07T19:16:29.702Z,11.40
2018-11-07T19:19:03.281Z,11.40
2018-11-07T19:21:36.866Z,11.40
2018-11-07T19:24:11.459Z,11.40
2018-11-07T19:26:45.936Z,11.40
2018-11-07T19:29:20.188Z,11.40
2018-11-07T19:31:53.877Z,11.40
2018-11-07T19:34:27.399Z,11.40
2018-11-07T19:37:01.747Z,11.30
2018-11-07T19:39:35.413Z,11.20
2018-11-07T19:42:09.216Z,11.30
2018-11-07T19:44:42.791Z,11.30
2018-11-07T19:47:16.649Z,11.30
2018-11-07T19:49:50.328Z,11.30
2018-11-07T19:52:24.930Z,11.30
2018-11-07T19:54:59.511Z,11.40
2018-11-07T19:57:33.199Z,11.40
2018-11-07T20:00:07.801Z,11.40
2018-11-07T20:02:41.542Z,11.40
2018-11-07T20:05:16.076Z,11.40
2018-11-07T20:07:49.626Z,11.30
2018-11-07T20:10:23.348Z,11.40
2018-11-07T20:12:57.116Z,11.40
2018-11-07T20:15:30.973Z,11.40
2018-11-07T20:18:04.606Z,11.50
2018-11-07T20:20:39.320Z,11.50
2018-11-07T20:23:13.096Z,11.50
2018-11-07T20:25:46.889Z,11.50
2018-11-07T20:28:20.678Z,11.50
2018-11-07T20:30:54.457Z,11.50
2018-11-07T20:33:28.067Z,11.50
2018-11-07T20:36:01.860Z,11.50
2018-11-07T20:38:36.241Z,11.60
2018-11-07T20:41:10.829Z,11.50
2018-11-07T20:43:44.378Z,11.50
2018-11-07T20:46:18.063Z,11.50
2018-11-07T20:48:52.529Z,11.40
2018-11-07T20:51:26.204Z,11.40
2018-11-07T20:53:59.864Z,11.40
2018-11-07T20:56:33.555Z,11.30
2018-11-07T20:59:07.207Z,11.40
2018-11-07T21:01:41.840Z,11.30
2018-11-07T21:04:15.481Z,11.30
2018-11-07T21:06:49.126Z,11.20
2018-11-07T21:09:23.625Z,11.30
2018-11-07T21:11:57.391Z,11.20
2018-11-07T21:14:32.018Z,11.30
2018-11-07T21:17:05.712Z,11.30
2018-11-07T21:19:39.755Z,11.30
2018-11-07T21:22:13.492Z,11.30
2018-11-07T21:24:47.334Z,11.30
2018-11-07T21:27:21.200Z,11.30
2018-11-07T21:29:54.893Z,11.30
2018-11-07T21:32:29.227Z,11.20
2018-11-07T21:35:03.077Z,11.20
2018-11-07T21:37:36.732Z,11.20
2018-11-07T21:40:10.361Z,11.20
2018-11-07T21:42:43.937Z,11.20
2018-11-07T21:45:17.536Z,11.20
2018-11-07T21:47:51.237Z,11.20
2018-11-07T21:50:24.938Z,11.10
2018-11-07T21:52:58.561Z,11.20
2018-11-07T21:55:32.227Z,11.20
2018-11-07T21:58:05.861Z,11.20
2018-11-07T22:00:39.542Z,11.20
2018-11-07T22:03:14.146Z,11.20
2018-11-07T22:05:48.701Z,11.20
2018-11-07T22:08:22.339Z,11.20
2018-11-07T22:10:55.929Z,11.20
2018-11-07T22:13:29.857Z,11.20
2018-11-07T22:16:03.612Z,11.10
2018-11-07T22:18:38.213Z,11.10
2018-11-07T22:21:12.030Z,11.00
2018-11-07T22:23:45.962Z,11.00
2018-11-07T22:26:19.796Z,11.00
2018-11-07T22:28:54.224Z,11.00
2018-11-07T22:31:27.964Z,11.00
2018-11-07T22:34:02.293Z,10.90
2018-11-07T22:36:35.931Z,10.90
2018-11-07T22:39:09.731Z,10.90
2018-11-07T22:41:43.273Z,10.90
2018-11-07T22:44:16.902Z,11.00
2018-11-07T22:46:50.492Z,11.00
2018-11-07T22:49:24.129Z,11.00
2018-11-07T22:51:57.902Z,10.90
2018-11-07T22:54:31.457Z,10.90
2018-11-07T22:57:05.179Z,10.90
2018-11-07T22:59:38.959Z,10.90
2018-11-07T23:02:12.518Z,10.90
2018-11-07T23:04:46.062Z,10.90
2018-11-07T23:07:19.743Z,10.90
2018-11-07T23:09:53.508Z,10.90
2018-11-07T23:12:27.870Z,10.90
2018-11-07T23:15:01.552Z,10.90
2018-11-07T23:17:35.119Z,11.00
2018-11-07T23:20:08.878Z,11.00
2018-11-07T23:22:42.476Z,11.00
2018-11-07T23:25:16.083Z,11.00
2018-11-07T23:27:49.823Z,10.90
2018-11-07T23:30:23.674Z,10.90
2018-11-07T23:32:57.247Z,11.00
2018-11-07T23:35:30.971Z,11.00
2018-11-07T23:38:04.559Z,11.00
2018-11-07T23:40:38.176Z,10.90
2018-11-07T23:43:11.735Z,10.90
2018-11-07T23:45:45.397Z,10.90
2018-11-07T23:48:19.151Z,10.90
2018-11-07T23:50:52.793Z,10.90
2018-11-07T23:53:26.336Z,10.90
2018-11-07T23:56:00.826Z,10.90
2018-11-07T23:58:35.272Z,10.90
